Alexandria, South Dakota
Current Conditions -  °F | °C
As of 7:53 AM on Saturday 22 Nov 2014 (Local Time) from KMHE Reporting Station
Haze Haze  
Wind Chill: 16°   Ceiling: Unl
Heat Index: 25°   Visibility: 4mi
Dew Point: 23°   Wind: 8mph
Humidity: 92%   Direction: 160°SSE
Pressure: 29.71"   Gusts: NA
Location:  43.65°N, 97.78°W
Report Text: KMHE 221353Z AUTO 16007KT 4SM BR CLR M04/M05 A2971 RMK AO2 SLP073 T10391050 $
Loading
Personal Weather Stations






























Interactive Weather Map New forecast layout! Learn more

10-Day Weather Forecast

Advertisements
Track Severe Weather on mobile